sensor_id;sensor_type;location;lat;lon;timestamp;P1;durP1;ratioP1;P2;durP2;ratioP2
75628;SDS011;64213;46.452;16.994;2022-12-07T00:00:42;24.00;;;9.05;;
75628;SDS011;64213;46.452;16.994;2022-12-07T00:03:45;22.83;;;9.85;;
75628;SDS011;64213;46.452;16.994;2022-12-07T00:06:51;26.90;;;11.00;;
75628;SDS011;64213;46.452;16.994;2022-12-07T00:09:54;32.03;;;12.13;;
75628;SDS011;64213;46.452;16.994;2022-12-07T00:12:56;28.45;;;11.27;;
75628;SDS011;64213;46.452;16.994;2022-12-07T00:16:03;29.02;;;11.63;;
75628;SDS011;64213;46.452;16.994;2022-12-07T00:19:08;32.28;;;11.12;;
75628;SDS011;64213;46.452;16.994;2022-12-07T00:22:11;41.00;;;11.03;;
75628;SDS011;64213;46.452;16.994;2022-12-07T00:25:13;39.17;;;11.13;;
75628;SDS011;64213;46.452;16.994;2022-12-07T00:28:16;39.83;;;10.73;;
75628;SDS011;64213;46.452;16.994;2022-12-07T00:31:18;36.85;;;10.60;;
75628;SDS011;64213;46.452;16.994;2022-12-07T00:34:22;32.35;;;11.27;;
75628;SDS011;64213;46.452;16.994;2022-12-07T00:37:24;27.60;;;10.57;;
75628;SDS011;64213;46.452;16.994;2022-12-07T00:40:26;44.47;;;11.53;;
75628;SDS011;64213;46.452;16.994;2022-12-07T00:43:28;29.65;;;10.60;;
75628;SDS011;64213;46.452;16.994;2022-12-07T00:46:31;43.63;;;11.00;;
75628;SDS011;64213;46.452;16.994;2022-12-07T00:49:33;41.55;;;11.10;;
75628;SDS011;64213;46.452;16.994;2022-12-07T00:52:35;38.13;;;10.37;;
75628;SDS011;64213;46.452;16.994;2022-12-07T00:55:37;41.33;;;11.57;;
75628;SDS011;64213;46.452;16.994;2022-12-07T00:58:40;31.55;;;10.13;;
75628;SDS011;64213;46.452;16.994;2022-12-07T01:01:43;31.62;;;9.50;;
75628;SDS011;64213;46.452;16.994;2022-12-07T01:04:45;31.75;;;9.60;;
75628;SDS011;64213;46.452;16.994;2022-12-07T01:07:47;31.57;;;9.97;;
75628;SDS011;64213;46.452;16.994;2022-12-07T01:10:49;30.43;;;8.87;;
75628;SDS011;64213;46.452;16.994;2022-12-07T01:13:59;20.33;;;8.90;;
75628;SDS011;64213;46.452;16.994;2022-12-07T01:17:02;35.50;;;8.27;;
75628;SDS011;64213;46.452;16.994;2022-12-07T01:20:05;31.67;;;8.20;;
75628;SDS011;64213;46.452;16.994;2022-12-07T01:23:08;29.77;;;8.37;;
75628;SDS011;64213;46.452;16.994;2022-12-07T01:26:11;21.53;;;7.23;;
75628;SDS011;64213;46.452;16.994;2022-12-07T01:29:15;35.00;;;7.12;;
75628;SDS011;64213;46.452;16.994;2022-12-07T01:32:17;25.37;;;8.85;;
75628;SDS011;64213;46.452;16.994;2022-12-07T01:35:19;20.23;;;7.03;;
75628;SDS011;64213;46.452;16.994;2022-12-07T01:38:22;32.23;;;8.23;;
75628;SDS011;64213;46.452;16.994;2022-12-07T01:41:26;28.37;;;7.27;;
75628;SDS011;64213;46.452;16.994;2022-12-07T01:44:30;28.35;;;7.72;;
75628;SDS011;64213;46.452;16.994;2022-12-07T01:47:33;40.92;;;8.13;;
75628;SDS011;64213;46.452;16.994;2022-12-07T01:50:35;30.17;;;7.30;;
75628;SDS011;64213;46.452;16.994;2022-12-07T01:53:43;33.47;;;7.67;;
75628;SDS011;64213;46.452;16.994;2022-12-07T01:56:53;32.90;;;8.33;;
75628;SDS011;64213;46.452;16.994;2022-12-07T01:59:58;28.98;;;7.53;;
75628;SDS011;64213;46.452;16.994;2022-12-07T02:06:13;43.13;;;8.48;;
75628;SDS011;64213;46.452;16.994;2022-12-07T02:09:20;25.03;;;7.53;;
75628;SDS011;64213;46.452;16.994;2022-12-07T02:12:22;32.00;;;5.33;;
75628;SDS011;64213;46.452;16.994;2022-12-07T02:15:39;27.75;;;5.05;;
75628;SDS011;64213;46.452;16.994;2022-12-07T02:21:53;41.03;;;6.45;;
75628;SDS011;64213;46.452;16.994;2022-12-07T02:28:21;49.30;;;6.23;;
75628;SDS011;64213;46.452;16.994;2022-12-07T02:31:46;42.08;;;6.43;;
75628;SDS011;64213;46.452;16.994;2022-12-07T02:35:09;18.60;;;4.80;;
75628;SDS011;64213;46.452;16.994;2022-12-07T02:41:24;44.70;;;6.33;;
75628;SDS011;64213;46.452;16.994;2022-12-07T02:44:50;31.00;;;4.93;;
75628;SDS011;64213;46.452;16.994;2022-12-07T02:47:55;24.30;;;3.67;;
75628;SDS011;64213;46.452;16.994;2022-12-07T02:51:00;25.67;;;5.62;;
75628;SDS011;64213;46.452;16.994;2022-12-07T02:54:07;56.08;;;5.50;;
75628;SDS011;64213;46.452;16.994;2022-12-07T03:00:42;33.10;;;5.87;;
75628;SDS011;64213;46.452;16.994;2022-12-07T03:03:57;26.02;;;6.28;;
75628;SDS011;64213;46.452;16.994;2022-12-07T03:07:23;28.67;;;6.25;;
75628;SDS011;64213;46.452;16.994;2022-12-07T03:13:47;31.77;;;5.97;;
75628;SDS011;64213;46.452;16.994;2022-12-07T03:16:57;34.33;;;5.60;;
75628;SDS011;64213;46.452;16.994;2022-12-07T03:20:05;24.02;;;5.37;;
75628;SDS011;64213;46.452;16.994;2022-12-07T03:23:11;33.53;;;5.22;;
75628;SDS011;64213;46.452;16.994;2022-12-07T03:26:14;31.92;;;5.68;;
75628;SDS011;64213;46.452;16.994;2022-12-07T03:29:21;32.73;;;5.63;;
75628;SDS011;64213;46.452;16.994;2022-12-07T03:32:34;32.80;;;5.27;;
75628;SDS011;64213;46.452;16.994;2022-12-07T03:42:24;15.18;;;4.25;;
75628;SDS011;64213;46.452;16.994;2022-12-07T03:45:37;26.17;;;4.97;;
75628;SDS011;64213;46.452;16.994;2022-12-07T03:48:46;37.00;;;5.17;;
75628;SDS011;64213;46.452;16.994;2022-12-07T03:51:55;29.87;;;4.82;;
75628;SDS011;64213;46.452;16.994;2022-12-07T03:55:14;18.67;;;4.22;;
75628;SDS011;64213;46.452;16.994;2022-12-07T03:58:25;28.45;;;4.07;;
75628;SDS011;64213;46.452;16.994;2022-12-07T04:01:27;22.13;;;4.10;;
75628;SDS011;64213;46.452;16.994;2022-12-07T04:04:29;28.13;;;4.67;;
75628;SDS011;64213;46.452;16.994;2022-12-07T04:07:32;25.10;;;4.05;;
75628;SDS011;64213;46.452;16.994;2022-12-07T04:10:35;27.70;;;4.85;;
75628;SDS011;64213;46.452;16.994;2022-12-07T04:13:37;17.17;;;4.28;;
75628;SDS011;64213;46.452;16.994;2022-12-07T04:16:59;17.50;;;3.83;;
75628;SDS011;64213;46.452;16.994;2022-12-07T04:20:02;20.37;;;5.03;;
75628;SDS011;64213;46.452;16.994;2022-12-07T04:23:06;28.77;;;5.43;;
75628;SDS011;64213;46.452;16.994;2022-12-07T04:26:08;24.63;;;6.03;;
75628;SDS011;64213;46.452;16.994;2022-12-07T04:29:10;35.15;;;6.43;;
75628;SDS011;64213;46.452;16.994;2022-12-07T04:32:12;20.37;;;5.40;;
75628;SDS011;64213;46.452;16.994;2022-12-07T04:35:14;21.00;;;4.77;;
75628;SDS011;64213;46.452;16.994;2022-12-07T04:38:17;26.17;;;4.43;;
75628;SDS011;64213;46.452;16.994;2022-12-07T04:41:19;19.62;;;4.60;;
75628;SDS011;64213;46.452;16.994;2022-12-07T04:44:28;18.75;;;5.55;;
75628;SDS011;64213;46.452;16.994;2022-12-07T04:47:31;23.60;;;6.03;;
75628;SDS011;64213;46.452;16.994;2022-12-07T04:50:34;20.87;;;5.50;;
75628;SDS011;64213;46.452;16.994;2022-12-07T04:53:37;26.17;;;6.78;;
75628;SDS011;64213;46.452;16.994;2022-12-07T04:56:39;18.58;;;5.37;;
75628;SDS011;64213;46.452;16.994;2022-12-07T04:59:41;17.02;;;5.47;;
75628;SDS011;64213;46.452;16.994;2022-12-07T05:02:46;16.07;;;4.87;;
75628;SDS011;64213;46.452;16.994;2022-12-07T05:05:48;20.23;;;5.13;;
75628;SDS011;64213;46.452;16.994;2022-12-07T05:08:50;12.95;;;3.30;;
75628;SDS011;64213;46.452;16.994;2022-12-07T05:11:53;15.25;;;4.78;;
75628;SDS011;64213;46.452;16.994;2022-12-07T05:14:55;15.63;;;4.78;;
75628;SDS011;64213;46.452;16.994;2022-12-07T05:17:57;16.70;;;4.40;;
75628;SDS011;64213;46.452;16.994;2022-12-07T05:20:59;16.43;;;4.80;;
75628;SDS011;64213;46.452;16.994;2022-12-07T05:24:01;13.55;;;4.32;;
75628;SDS011;64213;46.452;16.994;2022-12-07T05:27:03;15.32;;;4.47;;
75628;SDS011;64213;46.452;16.994;2022-12-07T05:30:06;5.78;;;1.98;;
75628;SDS011;64213;46.452;16.994;2022-12-07T05:33:08;15.40;;;4.20;;
75628;SDS011;64213;46.452;16.994;2022-12-07T05:36:11;15.30;;;4.43;;
75628;SDS011;64213;46.452;16.994;2022-12-07T05:39:13;15.85;;;5.15;;
75628;SDS011;64213;46.452;16.994;2022-12-07T05:42:15;12.30;;;3.83;;
75628;SDS011;64213;46.452;16.994;2022-12-07T05:45:18;16.98;;;4.82;;
75628;SDS011;64213;46.452;16.994;2022-12-07T05:48:20;16.83;;;4.63;;
75628;SDS011;64213;46.452;16.994;2022-12-07T05:51:23;16.33;;;4.80;;
75628;SDS011;64213;46.452;16.994;2022-12-07T05:54:25;14.82;;;4.70;;
75628;SDS011;64213;46.452;16.994;2022-12-07T05:57:27;8.38;;;2.35;;
75628;SDS011;64213;46.452;16.994;2022-12-07T06:00:29;11.02;;;2.37;;
75628;SDS011;64213;46.452;16.994;2022-12-07T06:03:31;15.87;;;3.83;;
75628;SDS011;64213;46.452;16.994;2022-12-07T06:06:33;19.73;;;5.43;;
75628;SDS011;64213;46.452;16.994;2022-12-07T06:09:36;16.80;;;4.70;;
75628;SDS011;64213;46.452;16.994;2022-12-07T06:12:39;4.00;;;1.30;;
75628;SDS011;64213;46.452;16.994;2022-12-07T06:15:44;12.07;;;4.00;;
75628;SDS011;64213;46.452;16.994;2022-12-07T06:18:46;4.60;;;1.20;;
75628;SDS011;64213;46.452;16.994;2022-12-07T06:21:48;14.37;;;5.00;;
75628;SDS011;64213;46.452;16.994;2022-12-07T06:24:50;14.50;;;4.90;;
75628;SDS011;64213;46.452;16.994;2022-12-07T06:27:52;14.43;;;5.12;;
75628;SDS011;64213;46.452;16.994;2022-12-07T06:30:57;13.13;;;4.72;;
75628;SDS011;64213;46.452;16.994;2022-12-07T06:34:01;23.00;;;7.63;;
75628;SDS011;64213;46.452;16.994;2022-12-07T06:37:08;19.20;;;6.40;;
75628;SDS011;64213;46.452;16.994;2022-12-07T06:40:10;16.75;;;5.28;;
75628;SDS011;64213;46.452;16.994;2022-12-07T06:43:12;16.40;;;5.70;;
75628;SDS011;64213;46.452;16.994;2022-12-07T06:46:15;8.32;;;3.85;;
75628;SDS011;64213;46.452;16.994;2022-12-07T06:49:17;25.00;;;8.77;;
75628;SDS011;64213;46.452;16.994;2022-12-07T06:52:20;10.33;;;3.80;;
75628;SDS011;64213;46.452;16.994;2022-12-07T06:55:22;18.98;;;7.85;;
75628;SDS011;64213;46.452;16.994;2022-12-07T06:58:24;16.73;;;6.70;;
75628;SDS011;64213;46.452;16.994;2022-12-07T07:01:26;19.15;;;6.70;;
75628;SDS011;64213;46.452;16.994;2022-12-07T07:04:28;25.83;;;9.57;;
75628;SDS011;64213;46.452;16.994;2022-12-07T07:07:30;15.73;;;6.73;;
75628;SDS011;64213;46.452;16.994;2022-12-07T07:10:52;27.48;;;15.00;;
75628;SDS011;64213;46.452;16.994;2022-12-07T07:13:54;17.52;;;6.00;;
75628;SDS011;64213;46.452;16.994;2022-12-07T07:16:58;18.45;;;6.78;;
75628;SDS011;64213;46.452;16.994;2022-12-07T07:20:01;19.27;;;6.30;;
75628;SDS011;64213;46.452;16.994;2022-12-07T07:23:03;14.83;;;5.57;;
75628;SDS011;64213;46.452;16.994;2022-12-07T07:26:05;18.30;;;6.47;;
75628;SDS011;64213;46.452;16.994;2022-12-07T07:29:08;11.73;;;4.93;;
75628;SDS011;64213;46.452;16.994;2022-12-07T07:32:10;21.98;;;7.87;;
75628;SDS011;64213;46.452;16.994;2022-12-07T07:35:12;19.83;;;7.10;;
75628;SDS011;64213;46.452;16.994;2022-12-07T07:38:15;17.87;;;6.90;;
75628;SDS011;64213;46.452;16.994;2022-12-07T07:41:17;21.00;;;8.98;;
75628;SDS011;64213;46.452;16.994;2022-12-07T07:44:19;20.15;;;7.95;;
75628;SDS011;64213;46.452;16.994;2022-12-07T07:47:21;20.95;;;8.32;;
75628;SDS011;64213;46.452;16.994;2022-12-07T07:50:23;18.77;;;6.57;;
75628;SDS011;64213;46.452;16.994;2022-12-07T07:53:26;18.23;;;6.10;;
75628;SDS011;64213;46.452;16.994;2022-12-07T07:56:28;16.30;;;6.22;;
75628;SDS011;64213;46.452;16.994;2022-12-07T07:59:30;17.52;;;6.15;;
75628;SDS011;64213;46.452;16.994;2022-12-07T08:02:32;18.27;;;6.37;;
75628;SDS011;64213;46.452;16.994;2022-12-07T08:05:36;18.43;;;7.13;;
75628;SDS011;64213;46.452;16.994;2022-12-07T08:08:39;19.17;;;7.00;;
75628;SDS011;64213;46.452;16.994;2022-12-07T08:11:41;16.90;;;6.30;;
75628;SDS011;64213;46.452;16.994;2022-12-07T08:14:43;14.45;;;4.70;;
75628;SDS011;64213;46.452;16.994;2022-12-07T08:17:45;15.25;;;5.55;;
75628;SDS011;64213;46.452;16.994;2022-12-07T08:20:47;16.23;;;6.23;;
75628;SDS011;64213;46.452;16.994;2022-12-07T08:23:50;15.30;;;6.20;;
75628;SDS011;64213;46.452;16.994;2022-12-07T08:26:52;16.52;;;5.82;;
75628;SDS011;64213;46.452;16.994;2022-12-07T08:29:54;15.88;;;6.53;;
75628;SDS011;64213;46.452;16.994;2022-12-07T08:32:56;14.43;;;5.90;;
75628;SDS011;64213;46.452;16.994;2022-12-07T08:36:02;12.97;;;4.97;;
75628;SDS011;64213;46.452;16.994;2022-12-07T08:39:06;10.90;;;3.93;;
75628;SDS011;64213;46.452;16.994;2022-12-07T08:42:28;12.40;;;3.97;;
75628;SDS011;64213;46.452;16.994;2022-12-07T08:45:39;12.65;;;4.40;;
75628;SDS011;64213;46.452;16.994;2022-12-07T08:48:44;13.65;;;4.60;;
75628;SDS011;64213;46.452;16.994;2022-12-07T08:51:50;19.97;;;5.00;;
75628;SDS011;64213;46.452;16.994;2022-12-07T08:54:53;13.83;;;5.53;;
75628;SDS011;64213;46.452;16.994;2022-12-07T08:57:55;18.55;;;8.73;;
75628;SDS011;64213;46.452;16.994;2022-12-07T09:01:00;22.73;;;9.27;;
75628;SDS011;64213;46.452;16.994;2022-12-07T09:04:02;15.25;;;6.65;;
75628;SDS011;64213;46.452;16.994;2022-12-07T09:07:05;17.10;;;5.90;;
75628;SDS011;64213;46.452;16.994;2022-12-07T09:10:08;14.70;;;5.73;;
75628;SDS011;64213;46.452;16.994;2022-12-07T09:13:10;21.98;;;7.87;;
75628;SDS011;64213;46.452;16.994;2022-12-07T09:16:12;18.77;;;7.57;;
75628;SDS011;64213;46.452;16.994;2022-12-07T09:19:14;20.70;;;8.63;;
75628;SDS011;64213;46.452;16.994;2022-12-07T09:22:17;26.00;;;9.77;;
75628;SDS011;64213;46.452;16.994;2022-12-07T09:25:19;19.27;;;8.13;;
75628;SDS011;64213;46.452;16.994;2022-12-07T09:28:21;22.87;;;9.25;;
75628;SDS011;64213;46.452;16.994;2022-12-07T09:31:23;22.02;;;7.68;;
75628;SDS011;64213;46.452;16.994;2022-12-07T09:34:27;23.65;;;10.40;;
75628;SDS011;64213;46.452;16.994;2022-12-07T09:37:32;23.07;;;9.87;;
75628;SDS011;64213;46.452;16.994;2022-12-07T09:40:36;22.23;;;8.50;;
75628;SDS011;64213;46.452;16.994;2022-12-07T09:43:38;26.45;;;11.23;;
75628;SDS011;64213;46.452;16.994;2022-12-07T09:46:42;28.40;;;10.60;;
75628;SDS011;64213;46.452;16.994;2022-12-07T09:49:46;25.65;;;10.48;;
75628;SDS011;64213;46.452;16.994;2022-12-07T09:52:49;25.93;;;10.83;;
75628;SDS011;64213;46.452;16.994;2022-12-07T09:55:52;22.77;;;10.30;;
75628;SDS011;64213;46.452;16.994;2022-12-07T09:58:58;23.12;;;8.98;;
75628;SDS011;64213;46.452;16.994;2022-12-07T10:02:19;21.95;;;8.57;;
75628;SDS011;64213;46.452;16.994;2022-12-07T10:05:40;30.62;;;9.60;;
75628;SDS011;64213;46.452;16.994;2022-12-07T10:08:47;25.90;;;8.73;;
75628;SDS011;64213;46.452;16.994;2022-12-07T10:12:09;24.97;;;9.63;;
75628;SDS011;64213;46.452;16.994;2022-12-07T10:15:13;21.50;;;8.88;;
75628;SDS011;64213;46.452;16.994;2022-12-07T10:18:29;18.23;;;6.18;;
75628;SDS011;64213;46.452;16.994;2022-12-07T10:21:31;22.90;;;7.00;;
75628;SDS011;64213;46.452;16.994;2022-12-07T10:24:34;22.80;;;8.33;;
75628;SDS011;64213;46.452;16.994;2022-12-07T10:27:36;21.33;;;7.87;;
75628;SDS011;64213;46.452;16.994;2022-12-07T10:30:57;21.65;;;7.45;;
75628;SDS011;64213;46.452;16.994;2022-12-07T10:34:08;21.42;;;7.90;;
75628;SDS011;64213;46.452;16.994;2022-12-07T10:37:23;18.30;;;7.43;;
75628;SDS011;64213;46.452;16.994;2022-12-07T10:40:33;23.83;;;8.57;;
75628;SDS011;64213;46.452;16.994;2022-12-07T10:43:46;19.87;;;8.20;;
75628;SDS011;64213;46.452;16.994;2022-12-07T10:47:14;21.02;;;8.25;;
75628;SDS011;64213;46.452;16.994;2022-12-07T11:13:27;14.60;;;5.33;;
75628;SDS011;64213;46.452;16.994;2022-12-07T11:19:49;17.67;;;6.50;;
75628;SDS011;64213;46.452;16.994;2022-12-07T11:26:14;18.77;;;6.65;;
75628;SDS011;64213;46.452;16.994;2022-12-07T11:29:22;20.60;;;6.63;;
75628;SDS011;64213;46.452;16.994;2022-12-07T11:38:57;18.02;;;6.87;;
75628;SDS011;64213;46.452;16.994;2022-12-07T11:42:06;21.20;;;5.75;;
75628;SDS011;64213;46.452;16.994;2022-12-07T11:45:37;20.67;;;6.90;;
75628;SDS011;64213;46.452;16.994;2022-12-07T11:48:49;18.20;;;7.10;;
75628;SDS011;64213;46.452;16.994;2022-12-07T11:51:59;19.83;;;7.00;;
75628;SDS011;64213;46.452;16.994;2022-12-07T11:55:06;18.20;;;6.90;;
75628;SDS011;64213;46.452;16.994;2022-12-07T11:58:30;12.18;;;3.72;;
75628;SDS011;64213;46.452;16.994;2022-12-07T12:05:13;20.03;;;7.13;;
75628;SDS011;64213;46.452;16.994;2022-12-07T12:08:18;12.27;;;4.95;;
75628;SDS011;64213;46.452;16.994;2022-12-07T12:25:49;17.00;;;6.47;;
75628;SDS011;64213;46.452;16.994;2022-12-07T12:28:55;19.42;;;6.85;;
75628;SDS011;64213;46.452;16.994;2022-12-07T12:32:47;20.02;;;7.50;;
75628;SDS011;64213;46.452;16.994;2022-12-07T12:36:16;16.50;;;6.23;;
75628;SDS011;64213;46.452;16.994;2022-12-07T12:39:22;17.03;;;6.27;;
75628;SDS011;64213;46.452;16.994;2022-12-07T12:42:42;19.87;;;7.37;;
75628;SDS011;64213;46.452;16.994;2022-12-07T12:49:36;14.65;;;5.45;;
75628;SDS011;64213;46.452;16.994;2022-12-07T13:05:29;17.90;;;6.87;;
75628;SDS011;64213;46.452;16.994;2022-12-07T13:08:32;13.50;;;5.27;;
75628;SDS011;64213;46.452;16.994;2022-12-07T13:11:39;19.27;;;7.47;;
75628;SDS011;64213;46.452;16.994;2022-12-07T13:14:53;18.00;;;6.50;;
75628;SDS011;64213;46.452;16.994;2022-12-07T13:18:00;18.52;;;7.05;;
75628;SDS011;64213;46.452;16.994;2022-12-07T13:24:10;16.60;;;6.23;;
75628;SDS011;64213;46.452;16.994;2022-12-07T13:27:14;17.43;;;6.73;;
75628;SDS011;64213;46.452;16.994;2022-12-07T13:30:18;16.83;;;6.47;;
75628;SDS011;64213;46.452;16.994;2022-12-07T13:33:22;18.25;;;6.53;;
75628;SDS011;64213;46.452;16.994;2022-12-07T13:36:25;18.27;;;6.45;;
75628;SDS011;64213;46.452;16.994;2022-12-07T13:39:33;19.87;;;7.30;;
75628;SDS011;64213;46.452;16.994;2022-12-07T13:42:36;19.93;;;6.77;;
75628;SDS011;64213;46.452;16.994;2022-12-07T13:45:38;21.10;;;7.93;;
75628;SDS011;64213;46.452;16.994;2022-12-07T13:48:50;18.58;;;7.00;;
75628;SDS011;64213;46.452;16.994;2022-12-07T13:51:53;15.32;;;5.85;;
75628;SDS011;64213;46.452;16.994;2022-12-07T13:58:07;17.53;;;6.57;;
75628;SDS011;64213;46.452;16.994;2022-12-07T14:01:10;17.90;;;6.50;;
75628;SDS011;64213;46.452;16.994;2022-12-07T14:04:34;14.65;;;4.78;;
75628;SDS011;64213;46.452;16.994;2022-12-07T14:07:48;15.38;;;5.50;;
75628;SDS011;64213;46.452;16.994;2022-12-07T14:11:18;18.23;;;6.83;;
75628;SDS011;64213;46.452;16.994;2022-12-07T14:14:22;17.63;;;6.50;;
75628;SDS011;64213;46.452;16.994;2022-12-07T14:17:35;17.75;;;6.55;;
75628;SDS011;64213;46.452;16.994;2022-12-07T14:20:38;20.02;;;7.30;;
75628;SDS011;64213;46.452;16.994;2022-12-07T14:23:41;20.45;;;8.15;;
75628;SDS011;64213;46.452;16.994;2022-12-07T14:26:47;20.30;;;8.37;;
75628;SDS011;64213;46.452;16.994;2022-12-07T14:29:51;21.93;;;8.93;;
75628;SDS011;64213;46.452;16.994;2022-12-07T14:32:54;20.65;;;8.10;;
75628;SDS011;64213;46.452;16.994;2022-12-07T14:36:00;21.27;;;8.38;;
75628;SDS011;64213;46.452;16.994;2022-12-07T14:39:02;15.55;;;5.30;;
75628;SDS011;64213;46.452;16.994;2022-12-07T14:42:10;17.00;;;6.03;;
75628;SDS011;64213;46.452;16.994;2022-12-07T14:45:16;18.83;;;7.37;;
75628;SDS011;64213;46.452;16.994;2022-12-07T14:48:21;20.50;;;7.05;;
75628;SDS011;64213;46.452;16.994;2022-12-07T14:51:44;22.73;;;8.55;;
75628;SDS011;64213;46.452;16.994;2022-12-07T14:58:39;19.67;;;7.83;;
75628;SDS011;64213;46.452;16.994;2022-12-07T15:01:42;20.63;;;8.27;;
75628;SDS011;64213;46.452;16.994;2022-12-07T15:04:44;23.33;;;7.95;;
75628;SDS011;64213;46.452;16.994;2022-12-07T15:07:47;21.87;;;8.32;;
75628;SDS011;64213;46.452;16.994;2022-12-07T15:10:50;23.95;;;9.18;;
75628;SDS011;64213;46.452;16.994;2022-12-07T15:13:52;21.13;;;8.00;;
75628;SDS011;64213;46.452;16.994;2022-12-07T15:17:10;21.77;;;8.03;;
75628;SDS011;64213;46.452;16.994;2022-12-07T15:20:32;22.87;;;8.90;;
75628;SDS011;64213;46.452;16.994;2022-12-07T15:23:34;27.45;;;10.88;;
75628;SDS011;64213;46.452;16.994;2022-12-07T15:26:36;24.12;;;9.55;;
75628;SDS011;64213;46.452;16.994;2022-12-07T15:29:39;27.07;;;10.33;;
75628;SDS011;64213;46.452;16.994;2022-12-07T15:32:41;26.30;;;9.87;;
75628;SDS011;64213;46.452;16.994;2022-12-07T15:35:44;26.60;;;10.23;;
75628;SDS011;64213;46.452;16.994;2022-12-07T15:38:47;26.40;;;10.85;;
75628;SDS011;64213;46.452;16.994;2022-12-07T15:42:09;26.40;;;10.90;;
75628;SDS011;64213;46.452;16.994;2022-12-07T15:45:12;29.33;;;11.40;;
75628;SDS011;64213;46.452;16.994;2022-12-07T15:48:14;26.67;;;11.23;;
75628;SDS011;64213;46.452;16.994;2022-12-07T15:51:29;28.10;;;11.45;;
75628;SDS011;64213;46.452;16.994;2022-12-07T15:54:31;27.45;;;10.88;;
75628;SDS011;64213;46.452;16.994;2022-12-07T15:57:34;29.30;;;11.82;;
75628;SDS011;64213;46.452;16.994;2022-12-07T16:00:38;28.97;;;12.17;;
75628;SDS011;64213;46.452;16.994;2022-12-07T16:03:40;30.47;;;12.53;;
75628;SDS011;64213;46.452;16.994;2022-12-07T16:06:43;28.02;;;12.52;;
75628;SDS011;64213;46.452;16.994;2022-12-07T16:09:46;30.85;;;13.18;;
75628;SDS011;64213;46.452;16.994;2022-12-07T16:12:49;30.58;;;9.85;;
75628;SDS011;64213;46.452;16.994;2022-12-07T16:15:51;29.30;;;10.60;;
75628;SDS011;64213;46.452;16.994;2022-12-07T16:18:53;31.33;;;11.40;;
75628;SDS011;64213;46.452;16.994;2022-12-07T16:21:55;36.30;;;13.43;;
75628;SDS011;64213;46.452;16.994;2022-12-07T16:24:58;37.38;;;14.38;;
75628;SDS011;64213;46.452;16.994;2022-12-07T16:28:00;39.17;;;14.25;;
75628;SDS011;64213;46.452;16.994;2022-12-07T16:31:06;32.00;;;12.27;;
75628;SDS011;64213;46.452;16.994;2022-12-07T16:34:28;34.43;;;12.57;;
75628;SDS011;64213;46.452;16.994;2022-12-07T16:37:31;35.97;;;12.35;;
75628;SDS011;64213;46.452;16.994;2022-12-07T16:40:33;30.45;;;11.95;;
75628;SDS011;64213;46.452;16.994;2022-12-07T16:43:35;27.80;;;9.25;;
75628;SDS011;64213;46.452;16.994;2022-12-07T16:46:37;26.37;;;10.50;;
75628;SDS011;64213;46.452;16.994;2022-12-07T16:49:40;35.90;;;10.50;;
75628;SDS011;64213;46.452;16.994;2022-12-07T16:52:42;25.42;;;8.82;;
75628;SDS011;64213;46.452;16.994;2022-12-07T16:55:44;32.08;;;10.80;;
75628;SDS011;64213;46.452;16.994;2022-12-07T16:58:47;58.45;;;11.65;;
75628;SDS011;64213;46.452;16.994;2022-12-07T17:01:50;51.97;;;11.10;;
75628;SDS011;64213;46.452;16.994;2022-12-07T17:04:53;47.23;;;10.57;;
75628;SDS011;64213;46.452;16.994;2022-12-07T17:07:55;67.72;;;11.10;;
75628;SDS011;64213;46.452;16.994;2022-12-07T17:10:59;46.28;;;10.30;;
75628;SDS011;64213;46.452;16.994;2022-12-07T17:14:01;47.78;;;10.45;;
75628;SDS011;64213;46.452;16.994;2022-12-07T17:17:22;56.47;;;9.50;;
75628;SDS011;64213;46.452;16.994;2022-12-07T17:20:26;51.13;;;10.27;;
75628;SDS011;64213;46.452;16.994;2022-12-07T17:23:28;54.22;;;11.82;;
75628;SDS011;64213;46.452;16.994;2022-12-07T17:26:31;76.82;;;11.12;;
75628;SDS011;64213;46.452;16.994;2022-12-07T17:29:36;66.32;;;10.63;;
75628;SDS011;64213;46.452;16.994;2022-12-07T17:32:39;59.10;;;11.00;;
75628;SDS011;64213;46.452;16.994;2022-12-07T17:35:41;52.47;;;12.20;;
75628;SDS011;64213;46.452;16.994;2022-12-07T17:38:43;67.30;;;11.52;;
75628;SDS011;64213;46.452;16.994;2022-12-07T17:41:46;98.07;;;11.55;;
75628;SDS011;64213;46.452;16.994;2022-12-07T17:45:08;93.72;;;11.88;;
75628;SDS011;64213;46.452;16.994;2022-12-07T17:48:11;66.43;;;12.70;;
75628;SDS011;64213;46.452;16.994;2022-12-07T17:51:14;59.63;;;11.10;;
75628;SDS011;64213;46.452;16.994;2022-12-07T17:54:34;58.33;;;11.27;;
75628;SDS011;64213;46.452;16.994;2022-12-07T17:57:36;85.75;;;11.38;;
75628;SDS011;64213;46.452;16.994;2022-12-07T18:00:39;66.60;;;12.37;;
75628;SDS011;64213;46.452;16.994;2022-12-07T18:03:44;45.30;;;10.73;;
75628;SDS011;64213;46.452;16.994;2022-12-07T18:06:46;47.30;;;10.67;;
75628;SDS011;64213;46.452;16.994;2022-12-07T18:09:53;59.38;;;12.40;;
75628;SDS011;64213;46.452;16.994;2022-12-07T18:12:55;53.42;;;13.18;;
75628;SDS011;64213;46.452;16.994;2022-12-07T18:16:19;45.38;;;11.27;;
75628;SDS011;64213;46.452;16.994;2022-12-07T18:19:24;27.37;;;6.20;;
75628;SDS011;64213;46.452;16.994;2022-12-07T18:22:31;46.10;;;10.17;;
75628;SDS011;64213;46.452;16.994;2022-12-07T18:25:33;57.05;;;10.52;;
75628;SDS011;64213;46.452;16.994;2022-12-07T18:28:36;45.40;;;10.75;;
75628;SDS011;64213;46.452;16.994;2022-12-07T18:31:39;51.60;;;10.73;;
75628;SDS011;64213;46.452;16.994;2022-12-07T18:34:42;42.37;;;9.60;;
75628;SDS011;64213;46.452;16.994;2022-12-07T18:37:45;51.43;;;8.30;;
75628;SDS011;64213;46.452;16.994;2022-12-07T18:40:48;43.92;;;9.45;;
75628;SDS011;64213;46.452;16.994;2022-12-07T18:43:51;58.63;;;11.27;;
75628;SDS011;64213;46.452;16.994;2022-12-07T18:46:54;45.58;;;9.40;;
75628;SDS011;64213;46.452;16.994;2022-12-07T18:49:57;52.50;;;8.80;;
75628;SDS011;64213;46.452;16.994;2022-12-07T18:53:00;50.50;;;6.93;;
75628;SDS011;64213;46.452;16.994;2022-12-07T18:56:05;26.45;;;6.82;;
75628;SDS011;64213;46.452;16.994;2022-12-07T18:59:16;34.45;;;6.65;;
75628;SDS011;64213;46.452;16.994;2022-12-07T19:02:39;40.42;;;6.68;;
75628;SDS011;64213;46.452;16.994;2022-12-07T19:05:41;24.93;;;5.57;;
75628;SDS011;64213;46.452;16.994;2022-12-07T19:08:44;50.20;;;6.97;;
75628;SDS011;64213;46.452;16.994;2022-12-07T19:11:47;42.83;;;6.18;;
75628;SDS011;64213;46.452;16.994;2022-12-07T19:14:53;45.00;;;7.30;;
75628;SDS011;64213;46.452;16.994;2022-12-07T19:17:56;44.15;;;6.97;;
75628;SDS011;64213;46.452;16.994;2022-12-07T19:21:01;44.60;;;6.90;;
75628;SDS011;64213;46.452;16.994;2022-12-07T19:24:05;45.87;;;6.60;;
75628;SDS011;64213;46.452;16.994;2022-12-07T19:27:09;68.90;;;7.70;;
75628;SDS011;64213;46.452;16.994;2022-12-07T19:30:12;76.47;;;8.55;;
75628;SDS011;64213;46.452;16.994;2022-12-07T19:33:15;70.22;;;8.25;;
75628;SDS011;64213;46.452;16.994;2022-12-07T19:36:17;64.37;;;9.70;;
75628;SDS011;64213;46.452;16.994;2022-12-07T19:39:22;79.17;;;7.57;;
75628;SDS011;64213;46.452;16.994;2022-12-07T19:42:24;70.05;;;7.43;;
75628;SDS011;64213;46.452;16.994;2022-12-07T19:45:28;59.80;;;6.93;;
75628;SDS011;64213;46.452;16.994;2022-12-07T19:48:35;45.90;;;7.18;;